sensor_id;sensor_type;location;lat;lon;timestamp;P1;durP1;ratioP1;P2;durP2;ratioP2
23470;SDS011;11908;50.806;4.424;2023-06-22T08:15:09;20.25;;;14.80;;
23470;SDS011;11908;50.806;4.424;2023-06-22T08:17:36;23.63;;;15.02;;
23470;SDS011;11908;50.806;4.424;2023-06-22T08:20:02;16.00;;;14.00;;
23470;SDS011;11908;50.806;4.424;2023-06-22T08:22:34;19.70;;;13.88;;
23470;SDS011;11908;50.806;4.424;2023-06-22T08:25:01;18.67;;;14.70;;
23470;SDS011;11908;50.806;4.424;2023-06-22T08:27:28;17.35;;;14.15;;
23470;SDS011;11908;50.806;4.424;2023-06-22T08:29:56;18.52;;;14.93;;
23470;SDS011;11908;50.806;4.424;2023-06-22T08:32:23;17.35;;;14.75;;
23470;SDS011;11908;50.806;4.424;2023-06-22T08:34:53;17.08;;;14.93;;
23470;SDS011;11908;50.806;4.424;2023-06-22T08:37:22;21.88;;;16.15;;
23470;SDS011;11908;50.806;4.424;2023-06-22T08:39:59;24.10;;;15.88;;
23470;SDS011;11908;50.806;4.424;2023-06-22T08:42:26;19.15;;;15.63;;
23470;SDS011;11908;50.806;4.424;2023-06-22T08:44:52;19.75;;;16.50;;
23470;SDS011;11908;50.806;4.424;2023-06-22T08:47:18;18.35;;;15.93;;
23470;SDS011;11908;50.806;4.424;2023-06-22T08:49:45;19.88;;;15.98;;
23470;SDS011;11908;50.806;4.424;2023-06-22T08:52:11;24.55;;;16.73;;
23470;SDS011;11908;50.806;4.424;2023-06-22T08:54:36;19.85;;;16.48;;
23470;SDS011;11908;50.806;4.424;2023-06-22T08:57:02;21.23;;;15.73;;
23470;SDS011;11908;50.806;4.424;2023-06-22T08:59:28;19.77;;;15.30;;
23470;SDS011;11908;50.806;4.424;2023-06-22T09:01:53;16.75;;;14.55;;
23470;SDS011;11908;50.806;4.424;2023-06-22T09:04:19;17.85;;;14.93;;
23470;SDS011;11908;50.806;4.424;2023-06-22T09:06:47;19.27;;;15.18;;
23470;SDS011;11908;50.806;4.424;2023-06-22T09:09:13;18.60;;;15.60;;
23470;SDS011;11908;50.806;4.424;2023-06-22T09:11:39;16.27;;;14.15;;
23470;SDS011;11908;50.806;4.424;2023-06-22T09:14:05;22.42;;;16.38;;
23470;SDS011;11908;50.806;4.424;2023-06-22T09:16:31;19.27;;;15.35;;
23470;SDS011;11908;50.806;4.424;2023-06-22T09:18:57;18.60;;;14.85;;
23470;SDS011;11908;50.806;4.424;2023-06-22T09:21:23;22.88;;;15.15;;
23470;SDS011;11908;50.806;4.424;2023-06-22T09:23:49;18.23;;;14.52;;
23470;SDS011;11908;50.806;4.424;2023-06-22T09:26:17;22.58;;;15.88;;
23470;SDS011;11908;50.806;4.424;2023-06-22T09:28:43;24.85;;;18.05;;
23470;SDS011;11908;50.806;4.424;2023-06-22T09:31:09;25.63;;;16.38;;
23470;SDS011;11908;50.806;4.424;2023-06-22T09:33:35;23.73;;;16.30;;
23470;SDS011;11908;50.806;4.424;2023-06-22T09:36:03;20.92;;;14.73;;
23470;SDS011;11908;50.806;4.424;2023-06-22T09:38:32;19.40;;;15.10;;
23470;SDS011;11908;50.806;4.424;2023-06-22T09:41:03;35.78;;;17.50;;
23470;SDS011;11908;50.806;4.424;2023-06-22T09:43:30;25.35;;;17.50;;
23470;SDS011;11908;50.806;4.424;2023-06-22T09:45:57;25.20;;;17.63;;
23470;SDS011;11908;50.806;4.424;2023-06-22T09:48:23;21.90;;;17.02;;
23470;SDS011;11908;50.806;4.424;2023-06-22T09:50:48;19.80;;;15.90;;
23470;SDS011;11908;50.806;4.424;2023-06-22T09:53:14;28.33;;;16.27;;
23470;SDS011;11908;50.806;4.424;2023-06-22T09:55:40;19.17;;;14.32;;
23470;SDS011;11908;50.806;4.424;2023-06-22T09:58:05;23.20;;;16.35;;
23470;SDS011;11908;50.806;4.424;2023-06-22T10:00:31;16.20;;;14.35;;
23470;SDS011;11908;50.806;4.424;2023-06-22T10:02:57;16.65;;;14.95;;
23470;SDS011;11908;50.806;4.424;2023-06-22T10:05:23;23.42;;;17.13;;
23470;SDS011;11908;50.806;4.424;2023-06-22T10:07:50;22.30;;;17.17;;
23470;SDS011;11908;50.806;4.424;2023-06-22T10:10:15;20.98;;;17.17;;
23470;SDS011;11908;50.806;4.424;2023-06-22T10:12:42;22.90;;;17.42;;
23470;SDS011;11908;50.806;4.424;2023-06-22T10:15:12;23.25;;;16.27;;
23470;SDS011;11908;50.806;4.424;2023-06-22T10:17:39;22.08;;;17.13;;
23470;SDS011;11908;50.806;4.424;2023-06-22T10:20:08;25.25;;;19.40;;
23470;SDS011;11908;50.806;4.424;2023-06-22T10:22:38;25.85;;;19.77;;
23470;SDS011;11908;50.806;4.424;2023-06-22T10:25:07;26.25;;;19.45;;
23470;SDS011;11908;50.806;4.424;2023-06-22T10:27:33;24.40;;;19.10;;
23470;SDS011;11908;50.806;4.424;2023-06-22T10:29:59;27.88;;;20.15;;
23470;SDS011;11908;50.806;4.424;2023-06-22T10:32:25;25.95;;;21.65;;
23470;SDS011;11908;50.806;4.424;2023-06-22T10:34:50;28.17;;;21.40;;
23470;SDS011;11908;50.806;4.424;2023-06-22T10:37:16;32.55;;;22.17;;
23470;SDS011;11908;50.806;4.424;2023-06-22T10:39:42;30.15;;;24.20;;
23470;SDS011;11908;50.806;4.424;2023-06-22T10:42:07;27.88;;;22.73;;
23470;SDS011;11908;50.806;4.424;2023-06-22T10:44:33;26.70;;;23.00;;
23470;SDS011;11908;50.806;4.424;2023-06-22T10:46:59;32.67;;;22.77;;
23470;SDS011;11908;50.806;4.424;2023-06-22T10:49:24;33.83;;;24.67;;
23470;SDS011;11908;50.806;4.424;2023-06-22T10:51:50;33.85;;;24.23;;
23470;SDS011;11908;50.806;4.424;2023-06-22T10:54:16;30.70;;;24.58;;
23470;SDS011;11908;50.806;4.424;2023-06-22T10:56:43;28.48;;;24.17;;
23470;SDS011;11908;50.806;4.424;2023-06-22T10:59:09;33.83;;;25.45;;
23470;SDS011;11908;50.806;4.424;2023-06-22T11:01:35;31.35;;;25.33;;
23470;SDS011;11908;50.806;4.424;2023-06-22T11:04:02;31.65;;;26.67;;
23470;SDS011;11908;50.806;4.424;2023-06-22T11:06:28;34.97;;;26.20;;
23470;SDS011;11908;50.806;4.424;2023-06-22T11:08:54;33.13;;;25.45;;
23470;SDS011;11908;50.806;4.424;2023-06-22T11:11:20;35.40;;;27.52;;
23470;SDS011;11908;50.806;4.424;2023-06-22T11:13:45;32.30;;;27.30;;
23470;SDS011;11908;50.806;4.424;2023-06-22T11:16:11;35.53;;;27.98;;
23470;SDS011;11908;50.806;4.424;2023-06-22T11:18:37;34.33;;;29.23;;
23470;SDS011;11908;50.806;4.424;2023-06-22T11:21:03;33.97;;;29.27;;
23470;SDS011;11908;50.806;4.424;2023-06-22T11:23:29;33.17;;;28.42;;
23470;SDS011;11908;50.806;4.424;2023-06-22T11:25:55;35.63;;;29.90;;
23470;SDS011;11908;50.806;4.424;2023-06-22T11:28:20;36.17;;;29.52;;
23470;SDS011;11908;50.806;4.424;2023-06-22T11:30:46;39.67;;;31.50;;
23470;SDS011;11908;50.806;4.424;2023-06-22T11:33:11;42.88;;;31.30;;
23470;SDS011;11908;50.806;4.424;2023-06-22T11:35:37;39.30;;;32.72;;
23470;SDS011;11908;50.806;4.424;2023-06-22T11:38:03;41.55;;;32.17;;
23470;SDS011;11908;50.806;4.424;2023-06-22T11:40:30;36.90;;;31.58;;
23470;SDS011;11908;50.806;4.424;2023-06-22T11:42:55;39.80;;;32.65;;
23470;SDS011;11908;50.806;4.424;2023-06-22T11:45:21;45.60;;;32.08;;
23470;SDS011;11908;50.806;4.424;2023-06-22T11:47:47;44.20;;;32.75;;
23470;SDS011;11908;50.806;4.424;2023-06-22T11:50:13;37.63;;;30.38;;
23470;SDS011;11908;50.806;4.424;2023-06-22T11:52:39;39.65;;;32.90;;
23470;SDS011;11908;50.806;4.424;2023-06-22T11:55:05;38.05;;;32.08;;
23470;SDS011;11908;50.806;4.424;2023-06-22T11:57:38;43.83;;;31.58;;
23470;SDS011;11908;50.806;4.424;2023-06-22T12:00:17;42.58;;;32.45;;
23470;SDS011;11908;50.806;4.424;2023-06-22T12:02:44;38.67;;;31.05;;
23470;SDS011;11908;50.806;4.424;2023-06-22T12:05:12;36.63;;;30.50;;
23470;SDS011;11908;50.806;4.424;2023-06-22T12:07:38;40.80;;;32.03;;
23470;SDS011;11908;50.806;4.424;2023-06-22T12:10:03;39.70;;;30.50;;
23470;SDS011;11908;50.806;4.424;2023-06-22T12:12:30;42.17;;;32.25;;
23470;SDS011;11908;50.806;4.424;2023-06-22T12:14:55;42.38;;;31.52;;
23470;SDS011;11908;50.806;4.424;2023-06-22T12:17:21;35.75;;;30.63;;
23470;SDS011;11908;50.806;4.424;2023-06-22T12:19:47;39.67;;;30.35;;
23470;SDS011;11908;50.806;4.424;2023-06-22T12:22:12;44.60;;;31.63;;
23470;SDS011;11908;50.806;4.424;2023-06-22T12:24:38;40.13;;;31.67;;
23470;SDS011;11908;50.806;4.424;2023-06-22T12:27:04;38.47;;;29.73;;
23470;SDS011;11908;50.806;4.424;2023-06-22T12:29:30;37.80;;;29.10;;
23470;SDS011;11908;50.806;4.424;2023-06-22T12:31:55;36.85;;;29.65;;
23470;SDS011;11908;50.806;4.424;2023-06-22T12:34:21;41.75;;;31.15;;
23470;SDS011;11908;50.806;4.424;2023-06-22T12:36:47;39.30;;;30.10;;
23470;SDS011;11908;50.806;4.424;2023-06-22T12:39:13;38.88;;;31.58;;
23470;SDS011;11908;50.806;4.424;2023-06-22T12:41:39;40.88;;;31.50;;
23470;SDS011;11908;50.806;4.424;2023-06-22T12:44:05;39.30;;;32.70;;
23470;SDS011;11908;50.806;4.424;2023-06-22T12:46:30;43.85;;;33.88;;
23470;SDS011;11908;50.806;4.424;2023-06-22T12:49:02;46.08;;;35.28;;
23470;SDS011;11908;50.806;4.424;2023-06-22T12:51:29;42.47;;;34.22;;
23470;SDS011;11908;50.806;4.424;2023-06-22T12:53:54;45.03;;;36.53;;
23470;SDS011;11908;50.806;4.424;2023-06-22T12:56:20;45.03;;;36.17;;
23470;SDS011;11908;50.806;4.424;2023-06-22T12:58:46;51.17;;;38.83;;
23470;SDS011;11908;50.806;4.424;2023-06-22T13:01:12;49.13;;;39.50;;
23470;SDS011;11908;50.806;4.424;2023-06-22T13:03:38;47.90;;;40.70;;
23470;SDS011;11908;50.806;4.424;2023-06-22T13:06:04;53.80;;;40.75;;
23470;SDS011;11908;50.806;4.424;2023-06-22T13:08:30;49.33;;;39.33;;
23470;SDS011;11908;50.806;4.424;2023-06-22T13:10:55;56.55;;;42.42;;
23470;SDS011;11908;50.806;4.424;2023-06-22T13:13:24;54.72;;;43.45;;
23470;SDS011;11908;50.806;4.424;2023-06-22T13:15:52;57.10;;;43.00;;
23470;SDS011;11908;50.806;4.424;2023-06-22T13:18:19;58.63;;;41.40;;
23470;SDS011;11908;50.806;4.424;2023-06-22T13:20:44;50.55;;;41.28;;
23470;SDS011;11908;50.806;4.424;2023-06-22T13:23:10;55.88;;;39.55;;
23470;SDS011;11908;50.806;4.424;2023-06-22T13:25:36;50.13;;;40.58;;
23470;SDS011;11908;50.806;4.424;2023-06-22T13:28:02;51.60;;;42.13;;
23470;SDS011;11908;50.806;4.424;2023-06-22T13:30:28;52.22;;;41.03;;
23470;SDS011;11908;50.806;4.424;2023-06-22T13:32:55;53.20;;;41.33;;
23470;SDS011;11908;50.806;4.424;2023-06-22T13:35:21;51.10;;;41.28;;
23470;SDS011;11908;50.806;4.424;2023-06-22T13:37:46;56.72;;;41.20;;
23470;SDS011;11908;50.806;4.424;2023-06-22T13:40:12;61.65;;;43.83;;
23470;SDS011;11908;50.806;4.424;2023-06-22T13:42:38;57.20;;;44.25;;
23470;SDS011;11908;50.806;4.424;2023-06-22T13:45:04;57.58;;;41.97;;
23470;SDS011;11908;50.806;4.424;2023-06-22T13:47:31;53.33;;;40.65;;
23470;SDS011;11908;50.806;4.424;2023-06-22T13:49:56;48.13;;;39.08;;
23470;SDS011;11908;50.806;4.424;2023-06-22T13:52:25;48.58;;;38.47;;
23470;SDS011;11908;50.806;4.424;2023-06-22T13:54:51;49.22;;;38.65;;
23470;SDS011;11908;50.806;4.424;2023-06-22T13:57:16;50.28;;;37.10;;
23470;SDS011;11908;50.806;4.424;2023-06-22T13:59:42;46.88;;;37.90;;
23470;SDS011;11908;50.806;4.424;2023-06-22T14:02:08;48.65;;;37.28;;
23470;SDS011;11908;50.806;4.424;2023-06-22T14:04:33;44.78;;;36.95;;
23470;SDS011;11908;50.806;4.424;2023-06-22T14:06:59;47.80;;;37.80;;
23470;SDS011;11908;50.806;4.424;2023-06-22T14:09:25;46.50;;;37.85;;
23470;SDS011;11908;50.806;4.424;2023-06-22T14:11:50;48.58;;;36.83;;
23470;SDS011;11908;50.806;4.424;2023-06-22T14:14:16;44.03;;;37.08;;
23470;SDS011;11908;50.806;4.424;2023-06-22T14:16:42;47.33;;;38.47;;
23470;SDS011;11908;50.806;4.424;2023-06-22T14:19:07;49.90;;;38.40;;
23470;SDS011;11908;50.806;4.424;2023-06-22T14:21:33;49.60;;;40.47;;
23470;SDS011;11908;50.806;4.424;2023-06-22T14:23:59;53.40;;;42.08;;
23470;SDS011;11908;50.806;4.424;2023-06-22T14:26:24;52.38;;;41.63;;
23470;SDS011;11908;50.806;4.424;2023-06-22T14:28:51;51.60;;;41.80;;
23470;SDS011;11908;50.806;4.424;2023-06-22T14:31:18;52.78;;;42.35;;
23470;SDS011;11908;50.806;4.424;2023-06-22T14:33:47;52.08;;;41.60;;
23470;SDS011;11908;50.806;4.424;2023-06-22T14:36:14;53.80;;;41.53;;
23470;SDS011;11908;50.806;4.424;2023-06-22T14:38:40;50.00;;;41.22;;
23470;SDS011;11908;50.806;4.424;2023-06-22T14:41:06;53.13;;;41.92;;
23470;SDS011;11908;50.806;4.424;2023-06-22T14:43:32;51.58;;;42.72;;
23470;SDS011;11908;50.806;4.424;2023-06-22T14:45:58;51.47;;;40.53;;
23470;SDS011;11908;50.806;4.424;2023-06-22T14:48:23;54.80;;;44.08;;
23470;SDS011;11908;50.806;4.424;2023-06-22T14:50:49;56.22;;;44.63;;
23470;SDS011;11908;50.806;4.424;2023-06-22T14:53:15;60.95;;;44.78;;
23470;SDS011;11908;50.806;4.424;2023-06-22T14:55:40;64.35;;;46.75;;
23470;SDS011;11908;50.806;4.424;2023-06-22T14:58:06;64.00;;;47.13;;
23470;SDS011;11908;50.806;4.424;2023-06-22T15:00:32;60.17;;;45.92;;
23470;SDS011;11908;50.806;4.424;2023-06-22T15:02:57;63.17;;;47.72;;
23470;SDS011;11908;50.806;4.424;2023-06-22T15:05:24;57.47;;;45.28;;
23470;SDS011;11908;50.806;4.424;2023-06-22T15:07:50;59.40;;;47.78;;
23470;SDS011;11908;50.806;4.424;2023-06-22T15:10:16;58.78;;;45.03;;
23470;SDS011;11908;50.806;4.424;2023-06-22T15:12:42;53.33;;;44.47;;
23470;SDS011;11908;50.806;4.424;2023-06-22T15:15:07;56.70;;;45.70;;
23470;SDS011;11908;50.806;4.424;2023-06-22T15:17:33;52.92;;;44.15;;
23470;SDS011;11908;50.806;4.424;2023-06-22T15:19:59;57.70;;;43.83;;
23470;SDS011;11908;50.806;4.424;2023-06-22T15:22:25;54.70;;;44.22;;
23470;SDS011;11908;50.806;4.424;2023-06-22T15:24:51;53.70;;;43.60;;
23470;SDS011;11908;50.806;4.424;2023-06-22T15:27:19;52.92;;;42.08;;
23470;SDS011;11908;50.806;4.424;2023-06-22T15:29:45;53.45;;;42.83;;
23470;SDS011;11908;50.806;4.424;2023-06-22T15:32:10;53.13;;;42.22;;
23470;SDS011;11908;50.806;4.424;2023-06-22T15:34:37;50.70;;;42.25;;
23470;SDS011;11908;50.806;4.424;2023-06-22T15:37:03;50.60;;;41.10;;
23470;SDS011;11908;50.806;4.424;2023-06-22T15:39:28;50.67;;;40.72;;
23470;SDS011;11908;50.806;4.424;2023-06-22T15:41:54;47.00;;;41.75;;
23470;SDS011;11908;50.806;4.424;2023-06-22T15:44:21;49.30;;;42.17;;
23470;SDS011;11908;50.806;4.424;2023-06-22T15:46:47;48.28;;;41.17;;
23470;SDS011;11908;50.806;4.424;2023-06-22T15:49:14;47.25;;;39.75;;
23470;SDS011;11908;50.806;4.424;2023-06-22T15:51:40;47.90;;;39.97;;
23470;SDS011;11908;50.806;4.424;2023-06-22T15:54:06;50.50;;;40.67;;
23470;SDS011;11908;50.806;4.424;2023-06-22T15:56:31;47.15;;;40.13;;
23470;SDS011;11908;50.806;4.424;2023-06-22T15:58:57;52.72;;;42.10;;
23470;SDS011;11908;50.806;4.424;2023-06-22T16:01:23;55.00;;;42.33;;
23470;SDS011;11908;50.806;4.424;2023-06-22T16:03:52;50.20;;;41.03;;
23470;SDS011;11908;50.806;4.424;2023-06-22T16:06:18;51.35;;;39.08;;
23470;SDS011;11908;50.806;4.424;2023-06-22T16:08:44;48.65;;;39.03;;
23470;SDS011;11908;50.806;4.424;2023-06-22T16:11:10;49.53;;;40.90;;
23470;SDS011;11908;50.806;4.424;2023-06-22T16:13:35;52.20;;;42.42;;
23470;SDS011;11908;50.806;4.424;2023-06-22T16:16:01;51.80;;;42.10;;
23470;SDS011;11908;50.806;4.424;2023-06-22T16:18:27;50.42;;;39.97;;
23470;SDS011;11908;50.806;4.424;2023-06-22T16:20:53;52.35;;;42.08;;
23470;SDS011;11908;50.806;4.424;2023-06-22T16:23:18;53.15;;;39.63;;
23470;SDS011;11908;50.806;4.424;2023-06-22T16:25:44;49.83;;;41.90;;
23470;SDS011;11908;50.806;4.424;2023-06-22T16:28:10;50.13;;;40.85;;
23470;SDS011;11908;50.806;4.424;2023-06-22T16:30:36;49.95;;;44.30;;
23470;SDS011;11908;50.806;4.424;2023-06-22T16:33:01;49.40;;;44.05;;
23470;SDS011;11908;50.806;4.424;2023-06-22T16:35:28;62.25;;;49.40;;
23470;SDS011;11908;50.806;4.424;2023-06-22T16:37:54;57.92;;;51.75;;
23470;SDS011;11908;50.806;4.424;2023-06-22T16:40:21;60.38;;;50.05;;
23470;SDS011;11908;50.806;4.424;2023-06-22T16:42:47;60.30;;;49.22;;
23470;SDS011;11908;50.806;4.424;2023-06-22T16:45:14;54.83;;;48.28;;
23470;SDS011;11908;50.806;4.424;2023-06-22T16:47:40;64.05;;;50.38;;
23470;SDS011;11908;50.806;4.424;2023-06-22T16:50:06;57.53;;;48.10;;
23470;SDS011;11908;50.806;4.424;2023-06-22T16:52:32;59.30;;;49.60;;
23470;SDS011;11908;50.806;4.424;2023-06-22T16:54:59;58.10;;;49.10;;
23470;SDS011;11908;50.806;4.424;2023-06-22T16:57:25;55.90;;;48.53;;
23470;SDS011;11908;50.806;4.424;2023-06-22T16:59:52;58.28;;;48.45;;
23470;SDS011;11908;50.806;4.424;2023-06-22T17:02:19;54.38;;;46.20;;
23470;SDS011;11908;50.806;4.424;2023-06-22T17:04:47;56.33;;;46.05;;
23470;SDS011;11908;50.806;4.424;2023-06-22T17:07:17;53.30;;;45.65;;
23470;SDS011;11908;50.806;4.424;2023-06-22T17:09:45;52.00;;;43.83;;
23470;SDS011;11908;50.806;4.424;2023-06-22T17:12:12;53.20;;;43.47;;
23470;SDS011;11908;50.806;4.424;2023-06-22T17:14:48;51.15;;;42.30;;
23470;SDS011;11908;50.806;4.424;2023-06-22T17:17:16;51.45;;;44.42;;
23470;SDS011;11908;50.806;4.424;2023-06-22T17:19:43;59.28;;;44.03;;
23470;SDS011;11908;50.806;4.424;2023-06-22T17:22:09;48.70;;;40.38;;
23470;SDS011;11908;50.806;4.424;2023-06-22T17:24:36;48.88;;;41.65;;
23470;SDS011;11908;50.806;4.424;2023-06-22T17:27:02;60.15;;;45.35;;
23470;SDS011;11908;50.806;4.424;2023-06-22T17:29:28;51.80;;;41.50;;
23470;SDS011;11908;50.806;4.424;2023-06-22T17:31:56;48.90;;;39.65;;
23470;SDS011;11908;50.806;4.424;2023-06-22T17:34:22;51.30;;;39.13;;
23470;SDS011;11908;50.806;4.424;2023-06-22T17:36:53;47.30;;;39.38;;
23470;SDS011;11908;50.806;4.424;2023-06-22T17:39:21;49.97;;;38.95;;
23470;SDS011;11908;50.806;4.424;2023-06-22T17:41:49;45.33;;;37.92;;
23470;SDS011;11908;50.806;4.424;2023-06-22T17:44:19;38.40;;;33.30;;
23470;SDS011;11908;50.806;4.424;2023-06-22T17:46:47;48.00;;;38.25;;
23470;SDS011;11908;50.806;4.424;2023-06-22T17:49:17;44.53;;;37.75;;
23470;SDS011;11908;50.806;4.424;2023-06-22T17:51:43;44.05;;;35.85;;
23470;SDS011;11908;50.806;4.424;2023-06-22T17:54:10;43.78;;;36.22;;
23470;SDS011;11908;50.806;4.424;2023-06-22T17:56:36;39.58;;;31.73;;
23470;SDS011;11908;50.806;4.424;2023-06-22T17:59:02;36.90;;;31.98;;
23470;SDS011;11908;50.806;4.424;2023-06-22T18:01:29;38.35;;;32.88;;
23470;SDS011;11908;50.806;4.424;2023-06-22T18:04:09;41.47;;;33.60;;
23470;SDS011;11908;50.806;4.424;2023-06-22T18:06:46;37.55;;;31.15;;
23470;SDS011;11908;50.806;4.424;2023-06-22T18:09:12;39.63;;;31.80;;
23470;SDS011;11908;50.806;4.424;2023-06-22T18:11:43;34.58;;;30.77;;
23470;SDS011;11908;50.806;4.424;2023-06-22T18:14:10;38.13;;;32.08;;
23470;SDS011;11908;50.806;4.424;2023-06-22T18:16:39;41.80;;;31.00;;
23470;SDS011;11908;50.806;4.424;2023-06-22T18:19:07;37.78;;;30.95;;
23470;SDS011;11908;50.806;4.424;2023-06-22T18:21:34;41.38;;;34.05;;
23470;SDS011;11908;50.806;4.424;2023-06-22T18:24:02;42.95;;;33.83;;
23470;SDS011;11908;50.806;4.424;2023-06-22T18:26:29;36.70;;;31.45;;
23470;SDS011;11908;50.806;4.424;2023-06-22T18:28:56;32.33;;;28.40;;
23470;SDS011;11908;50.806;4.424;2023-06-22T18:31:22;35.35;;;28.98;;
23470;SDS011;11908;50.806;4.424;2023-06-22T18:33:53;30.17;;;26.92;;
23470;SDS011;11908;50.806;4.424;2023-06-22T18:38:57;42.17;;;28.95;;
23470;SDS011;11908;50.806;4.424;2023-06-22T18:44:01;32.47;;;28.58;;
23470;SDS011;11908;50.806;4.424;2023-06-22T18:46:31;40.42;;;34.15;;
23470;SDS011;11908;50.806;4.424;2023-06-22T18:51:55;34.63;;;28.30;;
23470;SDS011;11908;50.806;4.424;2023-06-22T18:54:34;30.63;;;27.15;;
23470;SDS011;11908;50.806;4.424;2023-06-22T18:57:02;30.77;;;25.58;;
23470;SDS011;11908;50.806;4.424;2023-06-22T19:10:44;32.13;;;27.00;;
23470;SDS011;11908;50.806;4.424;2023-06-22T19:15:51;30.67;;;24.67;;
23470;SDS011;11908;50.806;4.424;2023-06-22T19:18:31;27.80;;;24.05;;
23470;SDS011;11908;50.806;4.424;2023-06-22T19:21:07;26.38;;;23.58;;
23470;SDS011;11908;50.806;4.424;2023-06-22T19:23:38;27.23;;;22.42;;
23470;SDS011;11908;50.806;4.424;2023-06-22T19:26:08;25.77;;;22.35;;
23470;SDS011;11908;50.806;4.424;2023-06-22T19:28:45;25.27;;;22.08;;
23470;SDS011;11908;50.806;4.424;2023-06-22T19:31:12;25.30;;;21.90;;
23470;SDS011;11908;50.806;4.424;2023-06-22T19:33:39;27.95;;;23.85;;
23470;SDS011;11908;50.806;4.424;2023-06-22T19:36:05;32.97;;;25.45;;
23470;SDS011;11908;50.806;4.424;2023-06-22T19:38:31;35.05;;;29.42;;
23470;SDS011;11908;50.806;4.424;2023-06-22T19:40:58;36.22;;;29.58;;
23470;SDS011;11908;50.806;4.424;2023-06-22T19:43:27;41.75;;;30.65;;
23470;SDS011;11908;50.806;4.424;2023-06-22T19:45:54;38.88;;;31.67;;
23470;SDS011;11908;50.806;4.424;2023-06-22T19:48:23;46.88;;;37.88;;
23470;SDS011;11908;50.806;4.424;2023-06-22T19:50:50;62.92;;;47.28;;
23470;SDS011;11908;50.806;4.424;2023-06-22T19:53:16;53.75;;;43.47;;
23470;SDS011;11908;50.806;4.424;2023-06-22T19:55:42;52.38;;;44.22;;
23470;SDS011;11908;50.806;4.424;2023-06-22T19:58:12;63.72;;;49.85;;
23470;SDS011;11908;50.806;4.424;2023-06-22T20:00:39;59.47;;;49.63;;
23470;SDS011;11908;50.806;4.424;2023-06-22T20:03:09;69.18;;;52.92;;
23470;SDS011;11908;50.806;4.424;2023-06-22T20:05:40;68.38;;;52.30;;
23470;SDS011;11908;50.806;4.424;2023-06-22T20:08:09;71.40;;;52.78;;
23470;SDS011;11908;50.806;4.424;2023-06-22T20:10:40;83.95;;;56.95;;
23470;SDS011;11908;50.806;4.424;2023-06-22T20:13:10;87.18;;;63.08;;
23470;SDS011;11908;50.806;4.424;2023-06-22T20:15:44;82.70;;;62.95;;
23470;SDS011;11908;50.806;4.424;2023-06-22T20:18:11;95.47;;;66.13;;
23470;SDS011;11908;50.806;4.424;2023-06-22T20:20:41;94.30;;;66.10;;
23470;SDS011;11908;50.806;4.424;2023-06-22T20:23:20;97.78;;;69.43;;
23470;SDS011;11908;50.806;4.424;2023-06-22T20:25:46;102.28;;;71.28;;
23470;SDS011;11908;50.806;4.424;2023-06-22T20:28:16;107.80;;;72.03;;
23470;SDS011;11908;50.806;4.424;2023-06-22T20:30:43;104.03;;;70.47;;
23470;SDS011;11908;50.806;4.424;2023-06-22T20:33:26;104.05;;;72.95;;
23470;SDS011;11908;50.806;4.424;2023-06-22T20:35:52;105.82;;;73.05;;
23470;SDS011;11908;50.806;4.424;2023-06-22T20:38:18;107.88;;;71.60;;
23470;SDS011;11908;50.806;4.424;2023-06-22T20:40:48;98.57;;;71.72;;
23470;SDS011;11908;50.806;4.424;2023-06-22T20:43:14;109.10;;;73.63;;
23470;SDS011;11908;50.806;4.424;2023-06-22T20:45:40;104.72;;;70.75;;
23470;SDS011;11908;50.806;4.424;2023-06-22T20:48:06;99.13;;;69.28;;
23470;SDS011;11908;50.806;4.424;2023-06-22T20:50:33;108.78;;;69.80;;
23470;SDS011;11908;50.806;4.424;2023-06-22T20:53:00;110.72;;;73.60;;
23470;SDS011;11908;50.806;4.424;2023-06-22T20:55:28;114.07;;;74.03;;
23470;SDS011;11908;50.806;4.424;2023-06-22T20:57:54;106.55;;;74.07;;
23470;SDS011;11908;50.806;4.424;2023-06-22T21:00:21;103.90;;;70.95;;
23470;SDS011;11908;50.806;4.424;2023-06-22T21:02:47;114.35;;;72.68;;
23470;SDS011;11908;50.806;4.424;2023-06-22T21:05:17;104.00;;;67.72;;
23470;SDS011;11908;50.806;4.424;2023-06-22T21:07:45;106.07;;;70.35;;
23470;SDS011;11908;50.806;4.424;2023-06-22T21:10:11;99.80;;;66.50;;
23470;SDS011;11908;50.806;4.424;2023-06-22T21:12:37;98.65;;;66.63;;
23470;SDS011;11908;50.806;4.424;2023-06-22T21:15:02;94.90;;;66.40;;
23470;SDS011;11908;50.806;4.424;2023-06-22T21:17:32;100.18;;;66.15;;
23470;SDS011;11908;50.806;4.424;2023-06-22T21:19:57;91.95;;;62.10;;
23470;SDS011;11908;50.806;4.424;2023-06-22T21:22:23;96.55;;;63.50;;
23470;SDS011;11908;50.806;4.424;2023-06-22T21:25:05;94.43;;;63.83;;
23470;SDS011;11908;50.806;4.424;2023-06-22T21:27:36;96.50;;;63.35;;
23470;SDS011;11908;50.806;4.424;2023-06-22T21:30:03;101.68;;;63.50;;
23470;SDS011;11908;50.806;4.424;2023-06-22T21:32:32;95.68;;;61.05;;
23470;SDS011;11908;50.806;4.424;2023-06-22T21:34:57;100.18;;;66.43;;
23470;SDS011;11908;50.806;4.424;2023-06-22T21:37:23;98.25;;;64.70;;
23470;SDS011;11908;50.806;4.424;2023-06-22T21:39:50;96.60;;;64.70;;
23470;SDS011;11908;50.806;4.424;2023-06-22T21:42:16;95.78;;;65.10;;
23470;SDS011;11908;50.806;4.424;2023-06-22T21:44:43;91.95;;;61.83;;
23470;SDS011;11908;50.806;4.424;2023-06-22T21:47:10;97.00;;;60.15;;
23470;SDS011;11908;50.806;4.424;2023-06-22T21:49:35;93.47;;;60.38;;
23470;SDS011;11908;50.806;4.424;2023-06-22T21:52:01;95.32;;;61.60;;
23470;SDS011;11908;50.806;4.424;2023-06-22T21:54:27;98.13;;;62.55;;
23470;SDS011;11908;50.806;4.424;2023-06-22T21:56:53;101.68;;;61.38;;
23470;SDS011;11908;50.806;4.424;2023-06-22T21:59:19;106.72;;;61.75;;
23470;SDS011;11908;50.806;4.424;2023-06-22T22:01:44;99.75;;;62.05;;
23470;SDS011;11908;50.806;4.424;2023-06-22T22:04:10;104.85;;;63.00;;
23470;SDS011;11908;50.806;4.424;2023-06-22T22:06:36;100.20;;;60.75;;
23470;SDS011;11908;50.806;4.424;2023-06-22T22:09:01;106.07;;;63.75;;
23470;SDS011;11908;50.806;4.424;2023-06-22T22:11:29;104.13;;;61.03;;
23470;SDS011;11908;50.806;4.424;2023-06-22T22:13:54;107.55;;;63.60;;
23470;SDS011;11908;50.806;4.424;2023-06-22T22:16:20;110.10;;;63.38;;
23470;SDS011;11908;50.806;4.424;2023-06-22T22:18:46;103.80;;;61.42;;
23470;SDS011;11908;50.806;4.424;2023-06-22T22:21:12;94.82;;;57.67;;
23470;SDS011;11908;50.806;4.424;2023-06-22T22:23:38;98.47;;;61.05;;
23470;SDS011;11908;50.806;4.424;2023-06-22T22:26:04;103.18;;;59.78;;
23470;SDS011;11908;50.806;4.424;2023-06-22T22:28:30;94.65;;;57.95;;
23470;SDS011;11908;50.806;4.424;2023-06-22T22:30:56;94.70;;;57.17;;
23470;SDS011;11908;50.806;4.424;2023-06-22T22:33:22;102.13;;;57.75;;
23470;SDS011;11908;50.806;4.424;2023-06-22T22:35:48;100.50;;;59.00;;
23470;SDS011;11908;50.806;4.424;2023-06-22T22:38:13;103.57;;;61.58;;
23470;SDS011;11908;50.806;4.424;2023-06-22T22:40:39;103.63;;;60.15;;
23470;SDS011;11908;50.806;4.424;2023-06-22T22:43:05;110.78;;;58.67;;
23470;SDS011;11908;50.806;4.424;2023-06-22T22:45:30;98.60;;;56.83;;
23470;SDS011;11908;50.806;4.424;2023-06-22T22:47:56;110.38;;;60.67;;
23470;SDS011;11908;50.806;4.424;2023-06-22T22:50:22;99.38;;;60.75;;
23470;SDS011;11908;50.806;4.424;2023-06-22T22:52:48;96.30;;;57.25;;
23470;SDS011;11908;50.806;4.424;2023-06-22T22:55:15;96.07;;;57.25;;